Weather History for KFMH - January, 2014

Change the Weather History Date:

Wednesday, January 1, 2014

  Actual Average Record
Temperature  
Mean Temperature 24 °F -  
Max Temperature 30 °F 39 °F 57 °F (2005)
Min Temperature 17 °F 24 °F 1 °F (1997)
Degree Days  
Heating Degree Days 42    
Moisture  
Dew Point 9 °F    
Average Humidity 53    
Maximum Humidity 86    
Minimum Humidity 20    
Precipitation  
Precipitation 0.00 in - - ()
Sea Level Pressure  
Sea Level Pressure 30.33 in    
Wind  
Wind Speed 11 mph (WNW)    
Max Wind Speed 21 mph    
Max Gust Speed 30 mph    
Visibility 10 miles    
Events      
Averages and records for this station are not official NWS values.
T = Trace of Precipitation, MM = Missing Value Source: NWS Daily Summary

Daily Weather History Graph

Daily Weather History Graph

Search for Another Location

Airport or City:

Trip Planner

Search our weather history database for the weather conditions in past years. The results will help you decide how hot, cold, wet, or windy it might be!

Date:

Astronomy

Jan. 01, 2014 Rise Set
Actual Time 7:09 AM EST 4:22 PM EST
Civil Twilight 6:37 AM EST 4:53 PM EST
Nautical Twilight 6:02 AM EST 5:28 PM EST
Astronomical Twilight 5:29 AM EST 6:02 PM EST
Moon 6:55 AM EST (1/1) 5:04 PM EST (1/1)
Length of Visible Light 10h 16m
Length of Day
9h 13m
New Moon, 0% of the Moon is Illuminated
Jan 1
New Moon
Jan 7
First Quarter
Jan 15
Full
Jan 24
Last Quarter
Jan 30
New

Hourly Weather History & Observations

Time (EST) Temp. Windchill Dew Point Humidity Pressure Visibility Wind Dir Wind Speed Gust Speed Precip Events Conditions
12:15 AM 24.8 °F 14.0 °F 14.0 °F 64% 30.19 in 10.0 mi WNW 11.5 mph 18.4 mph N/A   Clear
12:35 AM 23.0 °F 11.1 °F 14.0 °F 68% 30.21 in 10.0 mi NW 12.7 mph 20.7 mph N/A   Clear
12:55 AM 23.0 °F 11.1 °F 14.0 °F 68% 30.21 in 10.0 mi NW 12.7 mph 17.3 mph N/A   Clear
1:15 AM 23.0 °F 9.6 °F 10.4 °F 59% 30.21 in 10.0 mi NW 16.1 mph 21.9 mph N/A   Clear
1:35 AM 23.0 °F 9.6 °F 8.6 °F 54% 30.22 in 10.0 mi NW 16.1 mph 21.9 mph N/A   Clear
1:55 AM 23.0 °F 12.4 °F 8.6 °F 54% 30.23 in 10.0 mi NW 10.4 mph 19.6 mph N/A   Clear
2:15 AM 23.0 °F 11.1 °F 8.6 °F 54% 30.25 in 10.0 mi WNW 12.7 mph 18.4 mph N/A   Clear
2:35 AM 23.0 °F 12.4 °F 8.6 °F 54% 30.26 in 10.0 mi WNW 10.4 mph 18.4 mph N/A   Clear
2:55 AM 23.0 °F 10.6 °F 8.6 °F 54% 30.27 in 10.0 mi WNW 13.8 mph 19.6 mph N/A   Clear
3:15 AM 23.0 °F 10.1 °F 6.8 °F 50% 30.27 in 10.0 mi WNW 15.0 mph 19.6 mph N/A   Clear
3:35 AM 23.0 °F 11.1 °F 6.8 °F 50% 30.27 in 10.0 mi WNW 12.7 mph 20.7 mph N/A   Clear
3:55 AM 23.0 °F 9.2 °F 5.0 °F 46% 30.27 in 10.0 mi WNW 17.3 mph 23.0 mph N/A   Clear
4:15 AM 23.0 °F 9.2 °F 5.0 °F 46% 30.28 in 10.0 mi WNW 17.3 mph 25.3 mph N/A   Clear
4:35 AM 23.0 °F 8.0 °F 5.0 °F 46% 30.29 in 10.0 mi WNW 20.7 mph 29.9 mph N/A   Clear
4:55 AM 21.2 °F 6.8 °F 5.0 °F 50% 30.29 in 10.0 mi NW 17.3 mph 26.5 mph N/A   Clear
5:15 AM 21.2 °F 7.8 °F 5.0 °F 50% 30.30 in 10.0 mi NW 15.0 mph 24.2 mph N/A   Clear
5:35 AM 21.2 °F 10.1 °F 5.0 °F 50% 30.31 in 10.0 mi NW 10.4 mph 17.3 mph N/A   Clear
5:55 AM 19.4 °F 7.9 °F 5.0 °F 54% 30.31 in 10.0 mi WNW 10.4 mph - N/A   Clear
6:15 AM 19.4 °F 11.5 °F 5.0 °F 54% 30.33 in 10.0 mi WNW 5.8 mph - N/A   Partly Cloudy
6:35 AM 19.4 °F 12.8 °F 5.0 °F 54% 30.33 in 10.0 mi WNW 4.6 mph - N/A   Mostly Cloudy
6:55 AM 17.6 °F 10.7 °F 6.8 °F 63% 30.35 in 10.0 mi NW 4.6 mph - N/A   Scattered Clouds
7:15 AM 19.4 °F 12.8 °F 6.8 °F 58% 30.34 in 10.0 mi NW 4.6 mph - N/A   Clear
7:35 AM 19.4 °F 11.5 °F 8.6 °F 63% 30.35 in 10.0 mi WNW 5.8 mph - N/A   Clear
7:55 AM 23.0 °F 13.1 °F 8.6 °F 54% 30.35 in 10.0 mi WNW 9.2 mph 17.3 mph N/A   Clear
8:15 AM 23.0 °F 13.1 °F 8.6 °F 54% 30.36 in 10.0 mi West 9.2 mph - N/A   Clear
8:35 AM 24.8 °F 13.4 °F 8.6 °F 50% 30.36 in 10.0 mi West 12.7 mph 19.6 mph N/A   Clear
8:55 AM 23.0 °F 11.1 °F 6.8 °F 50% 30.37 in 10.0 mi West 12.7 mph - N/A   Clear
9:15 AM 23.0 °F 10.6 °F 6.8 °F 50% 30.38 in 10.0 mi WNW 13.8 mph - N/A   Clear
9:35 AM 26.6 °F 16.2 °F 8.6 °F 47% 30.38 in 10.0 mi WNW 11.5 mph 17.3 mph N/A   Clear
9:55 AM 26.6 °F 13.4 °F 6.8 °F 43% 30.38 in 10.0 mi West 18.4 mph 24.2 mph N/A   Clear
10:15 AM 26.6 °F 14.3 °F 6.8 °F 43% 30.38 in 10.0 mi WNW 16.1 mph 23.0 mph N/A   Clear
10:35 AM 26.6 °F 14.3 °F 5.0 °F 40% 30.38 in 10.0 mi West 16.1 mph 23.0 mph N/A   Clear
10:55 AM 26.6 °F 14.3 °F 6.8 °F 43% 30.36 in 10.0 mi WNW 16.1 mph 21.9 mph N/A   Clear
11:15 AM 26.6 °F 13.8 °F 6.8 °F 43% 30.35 in 10.0 mi WNW 17.3 mph 21.9 mph N/A   Clear
11:35 AM 28.4 °F 17.5 °F 6.8 °F 40% 30.35 in 10.0 mi West 13.8 mph 19.6 mph N/A   Scattered Clouds
11:55 AM 28.4 °F 17.5 °F 6.8 °F 40% 30.35 in 10.0 mi WNW 13.8 mph 19.6 mph N/A   Partly Cloudy
12:15 PM 28.4 °F 16.6 °F 6.8 °F 40% 30.34 in 10.0 mi West 16.1 mph 21.9 mph N/A   Clear
12:35 PM 28.4 °F 18.0 °F 6.8 °F 40% 30.33 in 10.0 mi West 12.7 mph - N/A   Clear
12:55 PM 28.4 °F 17.5 °F 6.8 °F 40% 30.33 in 10.0 mi West 13.8 mph 18.4 mph N/A   Clear
1:15 PM 28.4 °F 17.5 °F 6.8 °F 40% 30.33 in 10.0 mi West 13.8 mph - N/A   Clear
1:35 PM 28.4 °F 19.1 °F 6.8 °F 40% 30.34 in 10.0 mi West 10.4 mph 18.4 mph N/A   Clear
1:55 PM 28.4 °F 18.0 °F 6.8 °F 40% 30.34 in 10.0 mi WNW 12.7 mph 19.6 mph N/A   Clear
2:15 PM 28.4 °F 20.4 °F 5.0 °F 37% 30.33 in 10.0 mi West 8.1 mph - N/A   Clear
2:35 PM 28.4 °F 18.5 °F 6.8 °F 40% 30.34 in 10.0 mi WNW 11.5 mph - N/A   Clear
2:55 PM 28.4 °F 19.1 °F 6.8 °F 40% 30.34 in 10.0 mi West 10.4 mph - N/A   Clear
3:15 PM 28.4 °F 19.7 °F 6.8 °F 40% 30.33 in 10.0 mi West 9.2 mph - N/A   Clear
3:35 PM 28.4 °F 20.4 °F 6.8 °F 40% 30.34 in 10.0 mi West 8.1 mph - N/A   Clear
3:55 PM 26.6 °F 19.1 °F 6.8 °F 43% 30.34 in 10.0 mi West 6.9 mph - N/A   Clear
4:15 PM 24.8 °F 20.5 °F 6.8 °F 46% 30.34 in 10.0 mi WNW 3.5 mph - N/A   Clear
4:35 PM 24.8 °F 20.5 °F 6.8 °F 46% 30.34 in 10.0 mi NW 3.5 mph - N/A   Clear
4:55 PM 24.8 °F 20.5 °F 6.8 °F 46% 30.34 in 10.0 mi NW 3.5 mph - N/A   Mostly Cloudy
5:15 PM 24.8 °F 20.5 °F 6.8 °F 46% 30.35 in 10.0 mi WNW 3.5 mph - N/A   Mostly Cloudy
5:35 PM 24.8 °F 20.5 °F 6.8 °F 46% 30.35 in 10.0 mi NW 3.5 mph - N/A   Partly Cloudy
5:55 PM 24.8 °F 20.5 °F 6.8 °F 46% 30.35 in 10.0 mi North 3.5 mph - N/A   Mostly Cloudy
6:15 PM 24.8 °F 20.5 °F 8.6 °F 50% 30.36 in 10.0 mi North 3.5 mph - N/A   Overcast
6:35 PM 19.4 °F 14.3 °F 10.4 °F 68% 30.36 in 10.0 mi North 3.5 mph - N/A   Overcast
6:55 PM 19.4 °F - 10.4 °F 68% 30.37 in 10.0 mi Calm Calm - N/A   Overcast
7:15 PM 19.4 °F - 12.2 °F 74% 30.37 in 10.0 mi Calm Calm - N/A   Overcast
7:35 PM 19.4 °F - 14.0 °F 80% 30.37 in 10.0 mi Calm Calm - N/A   Overcast
7:55 PM 21.2 °F 16.4 °F 14.0 °F 74% 30.36 in 10.0 mi NE 3.5 mph - N/A   Overcast
8:15 PM 23.0 °F - 12.2 °F 63% 30.36 in 10.0 mi Calm Calm - N/A   Overcast
8:35 PM 21.2 °F - 14.0 °F 74% 30.37 in 10.0 mi Calm Calm - N/A   Overcast
8:55 PM 21.2 °F - 14.0 °F 74% 30.37 in 10.0 mi Calm Calm - N/A   Overcast
9:15 PM 21.2 °F - 14.0 °F 74% 30.37 in 10.0 mi Calm Calm - N/A   Overcast
9:35 PM 21.2 °F - 14.0 °F 74% 30.37 in 10.0 mi Calm Calm - N/A   Overcast
9:55 PM 19.4 °F 14.3 °F 15.8 °F 86% 30.37 in 10.0 mi North 3.5 mph - N/A   Overcast
10:15 PM 21.2 °F - 14.0 °F 74% 30.37 in 10.0 mi Calm Calm - N/A   Overcast
10:35 PM 23.0 °F 18.4 °F 14.0 °F 68% 30.37 in 10.0 mi NNE 3.5 mph - N/A   Overcast
10:55 PM 23.0 °F 18.4 °F 14.0 °F 68% 30.37 in 10.0 mi NE 3.5 mph - N/A   Overcast
11:15 PM 23.0 °F 18.4 °F 15.8 °F 74% 30.36 in 10.0 mi NE 3.5 mph - N/A   Overcast
11:35 PM 24.8 °F 17.9 °F 10.4 °F 54% 30.35 in 10.0 mi NE 5.8 mph - N/A   Overcast
11:55 PM 24.8 °F 19.1 °F 10.4 °F 54% 30.35 in 10.0 mi North 4.6 mph - N/A   Overcast